createdAt,value
2023-04-13T00:04:09.945Z,7.80
2023-04-13T00:09:11.713Z,7.80
2023-04-13T00:14:13.405Z,7.90
2023-04-13T00:19:15.064Z,7.90
2023-04-13T00:24:17.237Z,8.00
2023-04-13T00:29:18.908Z,7.90
2023-04-13T00:34:20.833Z,7.90
2023-04-13T00:39:23.316Z,7.80
2023-04-13T00:44:25.481Z,7.70
2023-04-13T00:49:28.738Z,7.70
2023-04-13T00:54:31.788Z,7.70
2023-04-13T00:59:34.241Z,7.60
2023-04-13T01:04:36.125Z,7.60
2023-04-13T01:10:03.790Z,7.50
2023-04-13T01:15:10.168Z,7.50
2023-04-13T01:20:15.747Z,7.60
2023-04-13T01:25:30.871Z,7.60
2023-04-13T01:30:34.264Z,7.50
2023-04-13T01:35:37.040Z,7.50
2023-04-13T01:40:41.767Z,7.50
2023-04-13T01:45:52.921Z,7.40
2023-04-13T01:51:08.712Z,7.30
2023-04-13T01:56:13.058Z,7.30
2023-04-13T02:01:15.906Z,7.20
2023-04-13T02:06:17.671Z,7.20
2023-04-13T02:11:19.647Z,7.10
2023-04-13T02:16:21.342Z,7.10
2023-04-13T02:21:23.057Z,7.00
2023-04-13T02:26:26.131Z,7.10
2023-04-13T02:31:27.972Z,6.90
2023-04-13T02:36:30.446Z,6.90
2023-04-13T02:41:32.125Z,7.00
2023-04-13T02:46:34.220Z,7.00
2023-04-13T02:51:36.388Z,7.00
2023-04-13T02:56:38.127Z,7.10
2023-04-13T03:01:40.335Z,7.00
2023-04-13T03:06:44.250Z,7.10
2023-04-13T03:11:46.072Z,7.10
2023-04-13T03:16:51.884Z,7.10
2023-04-13T03:21:53.988Z,7.20
2023-04-13T03:26:57.042Z,7.20
2023-04-13T03:31:58.901Z,7.20
2023-04-13T03:37:00.730Z,7.20
2023-04-13T03:42:03.598Z,7.20
2023-04-13T03:47:05.988Z,7.10
2023-04-13T03:52:07.682Z,7.10
2023-04-13T03:57:09.420Z,7.20
2023-04-13T04:02:11.130Z,7.10
2023-04-13T04:07:12.938Z,7.20
2023-04-13T04:12:15.506Z,7.10
2023-04-13T04:17:17.151Z,7.20
2023-04-13T04:22:18.804Z,7.10
2023-04-13T04:27:20.491Z,7.10
2023-04-13T04:32:24.161Z,7.10
2023-04-13T04:37:26.125Z,7.00
2023-04-13T04:42:27.911Z,7.00
2023-04-13T04:47:30.634Z,7.00
2023-04-13T04:52:32.956Z,6.90
2023-04-13T04:57:35.685Z,6.80
2023-04-13T05:02:37.606Z,6.90
2023-04-13T05:07:39.779Z,6.90
2023-04-13T05:12:41.584Z,6.80
2023-04-13T05:17:46.636Z,6.90
2023-04-13T05:22:48.475Z,6.80
2023-04-13T05:27:50.154Z,6.90
2023-04-13T05:32:52.102Z,6.90
2023-04-13T05:37:56.462Z,7.00
2023-04-13T05:42:58.917Z,7.10
2023-04-13T05:48:00.657Z,7.10
2023-04-13T05:53:02.399Z,7.10
2023-04-13T05:58:04.173Z,7.20
2023-04-13T06:03:07.667Z,7.20
2023-04-13T06:08:10.631Z,7.30
2023-04-13T06:13:12.502Z,7.40
2023-04-13T06:18:14.209Z,7.40
2023-04-13T06:23:15.917Z,7.50
2023-04-13T06:28:17.737Z,7.50
2023-04-13T06:33:20.552Z,7.50
2023-04-13T06:38:22.394Z,7.60
2023-04-13T06:43:29.445Z,7.60
2023-04-13T06:48:31.660Z,7.70
2023-04-13T06:53:33.393Z,7.90
2023-04-13T06:58:35.177Z,8.00
2023-04-13T07:03:36.926Z,8.20
2023-04-13T07:08:38.768Z,8.20
2023-04-13T07:13:40.878Z,8.20
2023-04-13T07:18:42.619Z,8.00
2023-04-13T07:23:44.935Z,7.90
2023-04-13T07:28:46.633Z,8.10
2023-04-13T07:33:48.335Z,8.10
2023-04-13T07:38:49.976Z,8.50
2023-04-13T07:43:51.674Z,8.80
2023-04-13T07:48:56.912Z,9.10
2023-04-13T07:53:58.651Z,9.20
2023-04-13T07:59:00.733Z,9.20
2023-04-13T08:04:02.993Z,8.90
2023-04-13T08:09:05.266Z,8.70
2023-04-13T08:14:09.641Z,8.60
2023-04-13T08:19:11.317Z,8.70
2023-04-13T08:24:13.102Z,8.70
2023-04-13T08:29:15.483Z,8.90
2023-04-13T08:34:18.543Z,8.90
2023-04-13T08:39:21.399Z,8.80
2023-04-13T08:44:23.891Z,9.20
2023-04-13T08:49:27.129Z,9.40
2023-04-13T08:54:28.785Z,9.30
2023-04-13T08:59:31.177Z,9.60
2023-04-13T09:04:37.870Z,9.60
2023-04-13T09:09:43.918Z,9.70
2023-04-13T09:14:45.834Z,10.00
2023-04-13T09:19:47.516Z,9.60
2023-04-13T09:24:49.678Z,9.70
2023-04-13T09:29:53.167Z,10.00
2023-04-13T09:35:09.784Z,9.60
2023-04-13T09:40:13.247Z,9.80
2023-04-13T09:45:15.032Z,10.10
2023-04-13T09:50:23.299Z,9.90
2023-04-13T09:55:25.002Z,10.50
2023-04-13T10:00:26.866Z,10.90
2023-04-13T10:05:29.894Z,10.70
2023-04-13T10:10:34.501Z,11.20
2023-04-13T10:15:47.556Z,12.00
2023-04-13T10:20:50.879Z,12.20
2023-04-13T10:25:54.201Z,11.80
2023-04-13T10:30:56.210Z,12.40
2023-04-13T10:35:59.496Z,12.10
2023-04-13T10:41:01.175Z,11.80
2023-04-13T10:46:10.853Z,11.90
2023-04-13T10:51:12.548Z,11.90
2023-04-13T10:56:20.527Z,11.40
2023-04-13T11:01:22.890Z,11.40
2023-04-13T11:06:24.695Z,11.50
2023-04-13T11:11:26.385Z,11.90
2023-04-13T11:16:28.183Z,11.70
2023-04-13T11:21:31.769Z,12.40
2023-04-13T11:26:42.984Z,12.50
2023-04-13T11:31:45.128Z,12.20
2023-04-13T11:36:49.675Z,12.10
2023-04-13T11:41:52.339Z,12.00
2023-04-13T11:46:56.345Z,11.80
2023-04-13T11:51:59.545Z,11.60
2023-04-13T11:57:01.685Z,11.90
2023-04-13T12:02:08.283Z,11.60
2023-04-13T12:07:15.493Z,11.50
2023-04-13T12:17:41.015Z,11.20
2023-04-13T12:22:55.103Z,10.40
2023-04-13T12:28:03.569Z,10.40
2023-04-13T12:33:05.351Z,10.20
2023-04-13T12:38:08.058Z,9.80
2023-04-13T12:43:09.750Z,9.60
2023-04-13T12:48:11.487Z,9.50
2023-04-13T12:53:13.571Z,10.30
2023-04-13T12:58:15.307Z,10.30
2023-04-13T13:03:17.145Z,10.10
2023-04-13T13:08:18.964Z,10.20
2023-04-13T13:13:20.790Z,10.30
2023-04-13T13:18:22.509Z,11.10
2023-04-13T13:23:24.198Z,12.10
2023-04-13T13:28:26.054Z,12.70
2023-04-13T13:33:27.770Z,13.90
2023-04-13T13:38:29.578Z,14.20
2023-04-13T13:43:31.412Z,14.70
2023-04-13T13:48:33.075Z,14.00
2023-04-13T13:53:34.932Z,14.80
2023-04-13T13:58:36.646Z,15.60
2023-04-13T14:03:38.452Z,16.40
2023-04-13T14:08:40.465Z,16.50
2023-04-13T14:13:42.135Z,16.80
2023-04-13T14:18:43.822Z,16.30
2023-04-13T14:23:45.907Z,15.60
2023-04-13T14:28:48.196Z,15.10
2023-04-13T14:33:49.971Z,15.70
2023-04-13T14:38:52.509Z,15.20
2023-04-13T14:43:54.283Z,14.40
2023-04-13T14:48:55.997Z,14.80
2023-04-13T14:53:57.872Z,14.30
2023-04-13T14:58:59.814Z,13.40
2023-04-13T15:04:02.897Z,12.50
2023-04-13T15:09:05.305Z,12.20
2023-04-13T15:14:07.169Z,12.50
2023-04-13T15:19:08.893Z,12.60
2023-04-13T15:24:11.622Z,13.10
2023-04-13T15:29:13.377Z,13.70
2023-04-13T15:34:15.441Z,13.80
2023-04-13T15:39:17.155Z,14.10
2023-04-13T15:44:18.848Z,14.30
2023-04-13T15:49:20.535Z,14.00
2023-04-13T15:54:22.259Z,13.70
2023-04-13T15:59:25.734Z,13.50
2023-04-13T16:04:28.834Z,13.80
2023-04-13T16:09:30.765Z,13.80
2023-04-13T16:14:38.894Z,13.00
2023-04-13T16:19:40.994Z,13.10
2023-04-13T16:24:43.111Z,13.60
2023-04-13T16:29:45.329Z,13.70
2023-04-13T16:34:47.045Z,14.00
2023-04-13T16:39:48.947Z,14.10
2023-04-13T16:44:51.366Z,14.40
2023-04-13T16:49:53.508Z,14.40
2023-04-13T16:54:55.632Z,14.30
2023-04-13T17:00:09.379Z,14.20
2023-04-13T17:05:12.451Z,14.30
2023-04-13T17:10:14.637Z,13.90
2023-04-13T17:15:18.845Z,13.90
2023-04-13T17:20:20.989Z,13.60
2023-04-13T17:25:22.776Z,13.50
2023-04-13T17:30:24.489Z,12.90
2023-04-13T17:35:26.198Z,13.00
2023-04-13T17:40:27.961Z,13.10
2023-04-13T17:45:29.756Z,12.70
2023-04-13T17:50:32.700Z,12.40
2023-04-13T17:55:36.608Z,12.10
2023-04-13T18:00:38.444Z,12.00
2023-04-13T18:05:44.707Z,11.70
2023-04-13T18:10:46.604Z,11.50
2023-04-13T18:15:50.300Z,11.20
2023-04-13T18:20:52.821Z,10.70
2023-04-13T18:25:54.514Z,10.50
2023-04-13T18:31:02.853Z,10.10
2023-04-13T18:36:04.827Z,9.90
2023-04-13T18:41:06.696Z,9.60
2023-04-13T18:46:08.542Z,9.00
2023-04-13T18:51:12.226Z,8.60
2023-04-13T18:56:13.967Z,8.60
2023-04-13T19:01:19.958Z,8.50
2023-04-13T19:06:21.708Z,8.50
2023-04-13T19:11:27.472Z,8.50
2023-04-13T19:16:29.275Z,8.30
2023-04-13T19:21:31.151Z,8.30
2023-04-13T19:26:32.874Z,8.40
2023-04-13T19:31:39.448Z,8.30
2023-04-13T19:36:41.928Z,8.00
2023-04-13T19:41:43.701Z,7.70
2023-04-13T19:46:46.371Z,7.70
2023-04-13T19:51:48.049Z,7.50
2023-04-13T19:56:49.675Z,7.60
2023-04-13T20:01:51.511Z,7.60
2023-04-13T20:06:55.131Z,7.60
2023-04-13T20:11:56.891Z,7.80
2023-04-13T20:16:58.561Z,7.80
2023-04-13T20:22:02.243Z,7.90
2023-04-13T20:27:05.068Z,7.90
2023-04-13T20:32:07.464Z,7.80
2023-04-13T20:37:10.164Z,7.70
2023-04-13T20:42:11.839Z,7.40
2023-04-13T20:47:14.127Z,7.50
2023-04-13T20:52:18.085Z,7.60
2023-04-13T20:57:20.194Z,7.60
2023-04-13T21:02:22.043Z,7.60
2023-04-13T21:07:24.028Z,7.40
2023-04-13T21:12:26.881Z,7.20
2023-04-13T21:17:30.920Z,7.10
2023-04-13T21:22:32.746Z,7.00
2023-04-13T21:27:34.409Z,7.10
2023-04-13T21:32:36.210Z,7.10
2023-04-13T21:37:38.019Z,7.10
2023-04-13T21:42:42.662Z,6.50
2023-04-13T21:47:44.373Z,6.40
2023-04-13T21:52:46.338Z,6.60
2023-04-13T21:57:48.421Z,6.80
2023-04-13T22:02:52.253Z,6.90
2023-04-13T22:07:53.986Z,7.00
2023-04-13T22:12:55.874Z,6.90
2023-04-13T22:17:57.574Z,7.00
2023-04-13T22:22:59.241Z,7.10
2023-04-13T22:28:00.906Z,7.00
2023-04-13T22:33:02.670Z,7.00
2023-04-13T22:38:04.386Z,7.20
2023-04-13T22:43:06.221Z,7.10
2023-04-13T22:48:07.921Z,7.30
2023-04-13T22:53:09.597Z,7.30
2023-04-13T22:58:11.526Z,7.30
2023-04-13T23:03:13.637Z,7.20
2023-04-13T23:08:15.552Z,7.40
2023-04-13T23:13:17.252Z,7.40
2023-04-13T23:18:19.043Z,7.50
2023-04-13T23:23:20.982Z,7.50
2023-04-13T23:28:23.539Z,7.60
2023-04-13T23:33:25.422Z,7.50
2023-04-13T23:38:28.041Z,7.50
2023-04-13T23:43:29.833Z,7.60
2023-04-13T23:48:31.908Z,7.60
2023-04-13T23:53:33.740Z,7.70
2023-04-13T23:58:35.503Z,7.70
